createdAt,value
2018-07-21T00:00:52.919Z,19.55
2018-07-21T00:03:20.973Z,19.50
2018-07-21T00:05:49.019Z,19.44
2018-07-21T00:08:17.088Z,19.40
2018-07-21T00:10:45.112Z,19.34
2018-07-21T00:13:13.180Z,19.29
2018-07-21T00:15:41.216Z,19.22
2018-07-21T00:18:09.252Z,19.16
2018-07-21T00:20:37.283Z,19.12
2018-07-21T00:23:05.372Z,19.09
2018-07-21T00:25:33.397Z,19.06
2018-07-21T00:28:01.424Z,19.01
2018-07-21T00:30:29.482Z,18.99
2018-07-21T00:32:57.527Z,18.96
2018-07-21T00:35:25.571Z,18.93
2018-07-21T00:37:53.608Z,18.90
2018-07-21T00:40:21.639Z,18.85
2018-07-21T00:42:49.680Z,18.82
2018-07-21T00:45:17.707Z,18.81
2018-07-21T00:47:45.746Z,18.79
2018-07-21T00:50:13.776Z,18.77
2018-07-21T00:52:41.811Z,18.73
2018-07-21T00:55:09.851Z,18.68
2018-07-21T00:57:37.890Z,18.63
2018-07-21T01:00:05.991Z,18.58
2018-07-21T01:02:34.040Z,18.51
2018-07-21T01:05:02.107Z,18.46
2018-07-21T01:07:30.131Z,18.43
2018-07-21T01:09:58.303Z,18.39
2018-07-21T01:12:26.356Z,18.37
2018-07-21T01:14:54.412Z,18.33
2018-07-21T01:17:22.454Z,18.32
2018-07-21T01:19:50.496Z,18.30
2018-07-21T01:22:18.572Z,18.27
2018-07-21T01:24:46.616Z,18.27
2018-07-21T01:27:15.072Z,18.26
2018-07-21T01:29:43.126Z,18.24
2018-07-21T01:32:11.164Z,18.22
2018-07-21T01:34:39.256Z,18.22
2018-07-21T01:37:07.307Z,18.24
2018-07-21T01:39:35.350Z,18.24
2018-07-21T01:42:03.400Z,18.27
2018-07-21T01:44:31.448Z,18.29
2018-07-21T01:46:59.492Z,18.30
2018-07-21T01:49:27.520Z,18.31
2018-07-21T01:51:55.556Z,18.32
2018-07-21T01:54:23.599Z,18.33
2018-07-21T01:56:51.641Z,18.34
2018-07-21T01:59:19.688Z,18.34
2018-07-21T02:01:47.728Z,18.31
2018-07-21T02:04:15.796Z,18.29
2018-07-21T02:06:43.861Z,18.27
2018-07-21T02:09:12.108Z,18.27
2018-07-21T02:11:40.399Z,18.28
2018-07-21T02:14:08.666Z,18.26
2018-07-21T02:16:36.729Z,18.24
2018-07-21T02:19:04.928Z,18.21
2018-07-21T02:21:33.173Z,18.21
2018-07-21T02:24:01.218Z,18.22
2018-07-21T02:26:29.306Z,18.21
2018-07-21T02:28:57.344Z,18.19
2018-07-21T02:31:25.372Z,18.15
2018-07-21T02:33:53.413Z,18.12
2018-07-21T02:36:21.459Z,18.12
2018-07-21T02:38:49.492Z,18.10
2018-07-21T02:41:17.552Z,18.09
2018-07-21T02:43:45.596Z,18.07
2018-07-21T02:46:13.656Z,18.03
2018-07-21T02:48:41.731Z,18.01
2018-07-21T02:51:09.769Z,18.00
2018-07-21T02:53:37.812Z,17.97
2018-07-21T02:56:05.868Z,17.94
2018-07-21T02:58:33.888Z,17.90
2018-07-21T03:01:01.918Z,17.89
2018-07-21T03:03:29.952Z,17.88
2018-07-21T03:05:58.073Z,17.86
2018-07-21T03:08:26.103Z,17.84
2018-07-21T03:10:54.136Z,17.81
2018-07-21T03:13:22.188Z,17.80
2018-07-21T03:15:50.223Z,17.76
2018-07-21T03:18:18.253Z,17.75
2018-07-21T03:20:46.288Z,17.73
2018-07-21T03:23:14.355Z,17.72
2018-07-21T03:25:42.354Z,17.69
2018-07-21T03:28:10.379Z,17.64
2018-07-21T03:30:38.473Z,17.63
2018-07-21T03:33:06.444Z,17.63
2018-07-21T03:35:34.483Z,17.63
2018-07-21T03:38:02.592Z,17.63
2018-07-21T03:40:30.646Z,17.61
2018-07-21T03:42:58.652Z,17.63
2018-07-21T03:45:27.050Z,17.63
2018-07-21T03:47:55.077Z,17.63
2018-07-21T03:50:23.127Z,17.65
2018-07-21T03:52:51.168Z,17.66
2018-07-21T03:55:19.204Z,17.67
2018-07-21T03:57:47.234Z,17.69
2018-07-21T04:00:15.303Z,17.69
2018-07-21T04:02:43.349Z,17.70
2018-07-21T04:05:11.420Z,17.70
2018-07-21T04:07:39.450Z,17.71
2018-07-21T04:10:07.480Z,17.70
2018-07-21T04:12:35.503Z,17.69
2018-07-21T04:15:03.564Z,17.69
2018-07-21T04:17:31.580Z,17.69
2018-07-21T04:19:59.639Z,17.68
2018-07-21T04:22:27.686Z,17.69
2018-07-21T04:24:56.283Z,17.70
2018-07-21T04:27:24.332Z,17.72
2018-07-21T04:29:53.034Z,17.75
2018-07-21T04:32:21.096Z,17.77
2018-07-21T04:34:49.156Z,17.79
2018-07-21T04:37:17.200Z,17.84
2018-07-21T04:39:45.266Z,17.89
2018-07-21T04:42:13.292Z,17.93
2018-07-21T04:44:41.317Z,17.98
2018-07-21T04:47:09.347Z,18.01
2018-07-21T04:49:37.381Z,18.04
2018-07-21T04:52:05.439Z,18.08
2018-07-21T04:54:33.472Z,18.13
2018-07-21T04:57:01.557Z,18.17
2018-07-21T04:59:29.550Z,18.25
2018-07-21T05:01:57.600Z,18.33
2018-07-21T05:04:25.642Z,18.42
2018-07-21T05:06:53.675Z,18.51
2018-07-21T05:09:21.712Z,18.60
2018-07-21T05:11:49.753Z,18.71
2018-07-21T05:14:17.790Z,18.81
2018-07-21T05:16:45.819Z,18.95
2018-07-21T05:19:13.895Z,19.05
2018-07-21T05:21:41.956Z,19.18
2018-07-21T05:24:10.016Z,19.25
2018-07-21T05:26:38.053Z,19.33
2018-07-21T05:29:06.103Z,19.44
2018-07-21T05:31:34.135Z,19.56
2018-07-21T05:34:02.191Z,19.68
2018-07-21T05:36:30.239Z,19.79
2018-07-21T05:38:58.258Z,19.90
2018-07-21T05:41:26.299Z,19.98
2018-07-21T05:43:54.322Z,20.09
2018-07-21T05:46:22.380Z,20.14
2018-07-21T05:48:50.427Z,20.22
2018-07-21T05:51:18.528Z,20.30
2018-07-21T05:53:46.552Z,20.35
2018-07-21T05:56:14.600Z,20.42
2018-07-21T05:58:42.640Z,20.53
2018-07-21T06:01:10.728Z,20.63
2018-07-21T06:03:38.791Z,20.72
2018-07-21T06:06:06.859Z,20.77
2018-07-21T06:08:34.926Z,20.83
2018-07-21T06:11:03.001Z,20.85
2018-07-21T06:13:31.039Z,20.95
2018-07-21T06:15:59.080Z,21.01
2018-07-21T06:18:27.137Z,21.08
2018-07-21T06:20:55.188Z,21.16
2018-07-21T06:23:23.315Z,21.23
2018-07-21T06:25:51.410Z,21.31
2018-07-21T06:28:19.444Z,21.41
2018-07-21T06:30:47.496Z,21.43
2018-07-21T06:33:15.553Z,21.51
2018-07-21T06:35:43.586Z,21.59
2018-07-21T06:38:11.642Z,21.67
2018-07-21T06:40:39.676Z,21.72
2018-07-21T06:43:07.790Z,21.80
2018-07-21T06:45:35.800Z,21.89
2018-07-21T06:48:03.864Z,22.01
2018-07-21T06:50:31.919Z,22.12
2018-07-21T06:52:59.986Z,22.24
2018-07-21T06:55:28.030Z,22.33
2018-07-21T06:57:56.073Z,22.44
2018-07-21T07:00:24.131Z,22.51
2018-07-21T07:02:52.176Z,22.55
2018-07-21T07:05:20.219Z,22.61
2018-07-21T07:07:48.332Z,22.64
2018-07-21T07:10:16.459Z,22.66
2018-07-21T07:12:44.454Z,22.72
2018-07-21T07:15:12.486Z,22.77
2018-07-21T07:17:40.535Z,22.85
2018-07-21T07:20:08.584Z,22.90
2018-07-21T07:22:36.655Z,22.92
2018-07-21T07:25:04.748Z,23.00
2018-07-21T07:27:32.897Z,23.12
2018-07-21T07:30:00.907Z,23.27
2018-07-21T07:32:29.003Z,23.36
2018-07-21T07:34:57.035Z,23.43
2018-07-21T07:37:25.104Z,23.56
2018-07-21T07:39:53.152Z,23.63
2018-07-21T07:42:21.244Z,23.69
2018-07-21T07:44:49.279Z,23.80
2018-07-21T07:47:17.347Z,23.90
2018-07-21T07:49:45.390Z,24.08
2018-07-21T07:52:13.469Z,24.27
2018-07-21T07:54:41.519Z,24.46
2018-07-21T07:57:09.981Z,24.55
2018-07-21T07:59:38.035Z,24.57
2018-07-21T08:02:06.173Z,24.79
2018-07-21T08:04:34.224Z,24.95
2018-07-21T08:07:02.286Z,25.17
2018-07-21T08:09:30.338Z,25.47
2018-07-21T08:11:58.376Z,25.51
2018-07-21T08:14:26.448Z,25.52
2018-07-21T08:16:54.508Z,25.62
2018-07-21T08:19:22.577Z,25.83
2018-07-21T08:21:50.627Z,26.12
2018-07-21T08:24:18.682Z,26.35
2018-07-21T08:26:46.747Z,26.51
2018-07-21T08:29:14.920Z,26.72
2018-07-21T08:31:42.955Z,26.82
2018-07-21T08:34:11.008Z,26.85
2018-07-21T08:36:39.048Z,27.12
2018-07-21T08:39:08.806Z,27.38
2018-07-21T08:41:36.855Z,27.57
2018-07-21T08:44:05.256Z,27.57
2018-07-21T08:46:33.296Z,27.50
2018-07-21T08:49:01.622Z,27.51
2018-07-21T08:51:29.704Z,27.67
2018-07-21T08:53:57.752Z,27.76
2018-07-21T08:56:25.815Z,27.73
2018-07-21T08:58:53.876Z,27.81
2018-07-21T09:01:21.932Z,27.83
2018-07-21T09:03:49.995Z,27.79
2018-07-21T09:06:18.032Z,27.92
2018-07-21T09:08:46.117Z,27.99
2018-07-21T09:11:14.200Z,27.91
2018-07-21T09:13:42.244Z,27.80
2018-07-21T09:16:10.300Z,27.70
2018-07-21T09:18:38.348Z,27.81
2018-07-21T09:21:06.425Z,27.91
2018-07-21T09:23:34.488Z,27.95
2018-07-21T09:26:02.549Z,28.18
2018-07-21T09:28:30.630Z,28.52
2018-07-21T09:30:58.704Z,28.73
2018-07-21T09:33:26.767Z,28.94
2018-07-21T09:35:54.804Z,29.18
2018-07-21T09:38:22.856Z,29.45
2018-07-21T09:40:50.896Z,29.70
2018-07-21T09:43:18.954Z,29.90
2018-07-21T09:45:46.995Z,29.90
2018-07-21T09:48:15.043Z,29.69
2018-07-21T09:50:43.104Z,29.51
2018-07-21T09:53:11.143Z,29.68
2018-07-21T09:55:39.257Z,30.04
2018-07-21T09:58:07.243Z,30.19
2018-07-21T10:00:40.608Z,30.24
2018-07-21T10:03:08.653Z,29.97
2018-07-21T10:05:36.711Z,29.69
2018-07-21T10:08:04.755Z,29.67
2018-07-21T10:10:32.804Z,29.81
2018-07-21T10:13:00.864Z,30.23
2018-07-21T10:15:28.965Z,30.52
2018-07-21T10:17:56.951Z,30.80
2018-07-21T10:20:25.019Z,31.20
2018-07-21T10:22:53.056Z,31.50
2018-07-21T10:25:26.469Z,31.59
2018-07-21T10:27:59.875Z,31.61
2018-07-21T10:30:27.950Z,31.78
2018-07-21T10:32:56.003Z,31.97
2018-07-21T10:35:24.282Z,32.20
2018-07-21T10:37:52.325Z,32.39
2018-07-21T10:40:20.415Z,32.61
2018-07-21T10:42:48.475Z,32.76
2018-07-21T10:45:16.536Z,32.67
2018-07-21T10:47:44.630Z,32.69
2018-07-21T10:50:12.757Z,32.80
2018-07-21T10:52:40.835Z,33.02
2018-07-21T10:55:08.884Z,33.08
2018-07-21T10:57:36.923Z,32.72
2018-07-21T11:00:05.708Z,32.48
2018-07-21T11:02:33.741Z,32.17
2018-07-21T11:05:01.829Z,31.91
2018-07-21T11:07:29.879Z,31.71
2018-07-21T11:09:57.951Z,31.63
2018-07-21T11:12:26.002Z,31.46
2018-07-21T11:14:54.051Z,31.38
2018-07-21T11:17:22.104Z,31.28
2018-07-21T11:19:50.180Z,31.19
2018-07-21T11:22:18.222Z,31.12
2018-07-21T11:24:46.313Z,31.05
2018-07-21T11:27:14.315Z,31.26
2018-07-21T11:29:42.430Z,31.58
2018-07-21T11:32:10.479Z,31.69
2018-07-21T11:34:38.548Z,31.87
2018-07-21T11:37:06.597Z,31.98
2018-07-21T11:39:34.720Z,31.97
2018-07-21T11:42:02.785Z,32.17
2018-07-21T11:44:30.850Z,32.36
2018-07-21T11:46:58.888Z,32.38
2018-07-21T11:49:26.995Z,32.23
2018-07-21T11:51:55.044Z,32.32
2018-07-21T11:54:23.084Z,32.46
2018-07-21T11:56:55.312Z,32.79
2018-07-21T11:59:23.379Z,33.08
2018-07-21T12:01:51.501Z,33.32
2018-07-21T12:04:19.524Z,33.14
2018-07-21T12:06:47.598Z,32.90
2018-07-21T12:09:15.667Z,32.62
2018-07-21T12:11:43.741Z,32.54
2018-07-21T12:14:11.800Z,32.53
2018-07-21T12:16:39.952Z,32.53
2018-07-21T12:19:08.003Z,32.57
2018-07-21T12:21:36.308Z,32.69
2018-07-21T12:24:04.579Z,32.87
2018-07-21T12:26:32.710Z,32.85
2018-07-21T12:29:00.726Z,32.78
2018-07-21T12:31:28.795Z,32.75
2018-07-21T12:33:56.843Z,32.65
2018-07-21T12:36:24.904Z,32.40
2018-07-21T12:38:52.975Z,32.33
2018-07-21T12:41:21.087Z,32.25
2018-07-21T12:43:49.148Z,32.18
2018-07-21T12:46:17.206Z,32.12
2018-07-21T12:48:45.259Z,32.05
2018-07-21T12:51:13.325Z,32.04
2018-07-21T12:53:41.376Z,32.07
2018-07-21T12:56:09.451Z,32.03
2018-07-21T12:58:37.527Z,31.97
2018-07-21T13:01:05.585Z,31.91
2018-07-21T13:03:33.631Z,31.97
2018-07-21T13:06:01.683Z,31.99
2018-07-21T13:08:29.736Z,31.93
2018-07-21T13:10:57.812Z,31.83
2018-07-21T13:13:25.887Z,31.96
2018-07-21T13:15:53.941Z,32.26
2018-07-21T13:18:21.992Z,32.47
2018-07-21T13:20:50.103Z,32.57
2018-07-21T13:23:18.160Z,32.58
2018-07-21T13:25:46.220Z,32.41
2018-07-21T13:28:14.287Z,32.17
2018-07-21T13:30:42.340Z,32.00
2018-07-21T13:33:10.559Z,32.11
2018-07-21T13:35:38.574Z,32.27
2018-07-21T13:38:06.656Z,32.44
2018-07-21T13:40:34.736Z,32.56
2018-07-21T13:43:02.800Z,32.84
2018-07-21T13:45:30.872Z,33.17
2018-07-21T13:47:58.931Z,33.41
2018-07-21T13:50:27.039Z,33.64
2018-07-21T13:52:55.084Z,33.89
2018-07-21T13:55:23.132Z,33.90
2018-07-21T13:57:51.273Z,33.88
2018-07-21T14:00:19.354Z,34.06
2018-07-21T14:02:47.416Z,34.15
2018-07-21T14:05:15.501Z,34.39
2018-07-21T14:07:43.551Z,34.58
2018-07-21T14:10:11.669Z,34.73
2018-07-21T14:12:39.727Z,34.49
2018-07-21T14:15:07.765Z,34.18
2018-07-21T14:17:35.831Z,33.88
2018-07-21T14:20:03.895Z,33.54
2018-07-21T14:22:31.989Z,33.37
2018-07-21T14:25:00.036Z,33.30
2018-07-21T14:27:28.088Z,33.10
2018-07-21T14:29:56.184Z,32.88
2018-07-21T14:32:24.224Z,32.77
2018-07-21T14:34:52.263Z,32.63
2018-07-21T14:37:20.567Z,32.52
2018-07-21T14:39:48.616Z,32.41
2018-07-21T14:42:16.707Z,32.34
2018-07-21T14:44:44.754Z,32.26
2018-07-21T14:47:12.879Z,32.25
2018-07-21T14:49:40.941Z,32.26
2018-07-21T14:52:09.000Z,32.18
2018-07-21T14:54:37.217Z,32.03
2018-07-21T14:57:05.213Z,31.86
2018-07-21T15:02:07.708Z,31.75
2018-07-21T15:04:35.768Z,31.64
2018-07-21T15:07:03.848Z,31.58
2018-07-21T15:09:31.934Z,31.54
2018-07-21T15:11:59.952Z,31.42
2018-07-21T15:14:28.000Z,31.35
2018-07-21T15:16:56.045Z,31.32
2018-07-21T15:19:24.087Z,31.29
2018-07-21T15:21:52.151Z,31.30
2018-07-21T15:24:20.300Z,31.30
2018-07-21T15:26:48.368Z,31.29
2018-07-21T15:29:16.409Z,31.28
2018-07-21T15:31:44.451Z,31.27
2018-07-21T15:34:12.531Z,31.25
2018-07-21T15:36:40.566Z,31.19
2018-07-21T15:39:09.178Z,31.15
2018-07-21T15:41:37.302Z,31.09
2018-07-21T15:44:05.416Z,31.02
2018-07-21T15:46:33.504Z,30.92
2018-07-21T15:49:01.609Z,30.87
2018-07-21T15:51:29.652Z,30.85
2018-07-21T15:53:57.701Z,30.85
2018-07-21T15:56:25.741Z,30.84
2018-07-21T15:58:53.795Z,30.86
2018-07-21T16:01:21.885Z,30.83
2018-07-21T16:03:50.103Z,30.83
2018-07-21T16:06:18.172Z,30.77
2018-07-21T16:08:46.316Z,30.78
2018-07-21T16:11:14.366Z,30.78
2018-07-21T16:13:42.424Z,30.77
2018-07-21T16:16:10.465Z,30.79
2018-07-21T16:18:38.503Z,30.79
2018-07-21T16:21:06.544Z,30.76
2018-07-21T16:23:34.597Z,30.65
2018-07-21T16:26:02.648Z,30.57
2018-07-21T16:28:30.712Z,30.58
2018-07-21T16:30:58.752Z,30.56
2018-07-21T16:33:26.868Z,30.54
2018-07-21T16:35:54.876Z,30.40
2018-07-21T16:38:22.927Z,30.31
2018-07-21T16:40:50.983Z,30.31
2018-07-21T16:43:19.035Z,30.25
2018-07-21T16:45:47.103Z,30.23
2018-07-21T16:48:15.137Z,30.18
2018-07-21T16:50:43.176Z,30.11
2018-07-21T16:53:11.211Z,30.08
2018-07-21T16:55:39.272Z,30.07
2018-07-21T16:58:07.300Z,30.03
2018-07-21T17:00:35.348Z,30.00
2018-07-21T17:03:03.486Z,30.01
2018-07-21T17:05:31.528Z,29.98
2018-07-21T17:07:59.618Z,29.95
2018-07-21T17:10:27.628Z,29.94
2018-07-21T17:12:55.683Z,29.92
2018-07-21T17:15:23.761Z,29.89
2018-07-21T17:17:51.784Z,29.86
2018-07-21T17:20:19.871Z,29.81
2018-07-21T17:22:47.917Z,29.77
2018-07-21T17:25:15.956Z,29.69
2018-07-21T17:27:44.042Z,29.62
2018-07-21T17:30:12.153Z,29.56
2018-07-21T17:32:40.129Z,29.52
2018-07-21T17:35:08.192Z,29.48
2018-07-21T17:37:36.225Z,29.49
2018-07-21T17:40:04.287Z,29.50
2018-07-21T17:42:32.352Z,29.54
2018-07-21T17:45:00.409Z,29.58
2018-07-21T17:47:28.467Z,29.60
2018-07-21T17:49:56.507Z,29.58
2018-07-21T17:52:24.576Z,29.59
2018-07-21T17:54:52.608Z,29.55
2018-07-21T17:57:20.671Z,29.57
2018-07-21T17:59:48.731Z,29.56
2018-07-21T18:02:16.792Z,29.58
2018-07-21T18:04:44.831Z,29.59
2018-07-21T18:07:12.895Z,29.56
2018-07-21T18:09:40.929Z,29.57
2018-07-21T18:12:09.173Z,29.56
2018-07-21T18:14:37.233Z,29.54
2018-07-21T18:17:05.268Z,29.54
2018-07-21T18:19:33.316Z,29.55
2018-07-21T18:22:01.348Z,29.54
2018-07-21T18:24:29.403Z,29.50
2018-07-21T18:26:57.464Z,29.44
2018-07-21T18:29:25.497Z,29.38
2018-07-21T18:31:53.539Z,29.28
2018-07-21T18:34:21.592Z,29.20
2018-07-21T18:36:49.666Z,29.09
2018-07-21T18:39:17.696Z,28.98
2018-07-21T18:41:45.756Z,28.82
2018-07-21T18:44:13.788Z,28.69
2018-07-21T18:46:41.832Z,28.57
2018-07-21T18:49:09.874Z,28.43
2018-07-21T18:51:37.900Z,28.29
2018-07-21T18:54:06.056Z,28.15
2018-07-21T18:56:34.088Z,28.01
2018-07-21T18:59:02.132Z,27.90
2018-07-21T19:01:30.172Z,27.79
2018-07-21T19:03:58.239Z,27.73
2018-07-21T19:06:26.307Z,27.65
2018-07-21T19:08:59.643Z,27.62
2018-07-21T19:11:27.707Z,27.59
2018-07-21T19:13:55.744Z,27.56
2018-07-21T19:16:29.179Z,27.49
2018-07-21T19:18:57.437Z,27.46
2018-07-21T19:21:25.523Z,27.43
2018-07-21T19:23:53.592Z,27.38
2018-07-21T19:26:26.980Z,27.33
2018-07-21T19:28:55.041Z,27.24
2018-07-21T19:31:23.103Z,27.17
2018-07-21T19:33:57.974Z,27.16
2018-07-21T19:36:26.004Z,27.16
2018-07-21T19:38:54.059Z,27.17
2018-07-21T19:41:27.567Z,27.18
2018-07-21T19:43:55.710Z,27.18
2018-07-21T19:46:23.771Z,27.17
2018-07-21T19:48:51.812Z,27.09
2018-07-21T19:51:19.853Z,27.07
2018-07-21T19:53:47.927Z,27.07
2018-07-21T19:56:15.956Z,27.03
2018-07-21T19:58:44.009Z,27.00
2018-07-21T20:01:12.071Z,26.95
2018-07-21T20:03:40.151Z,26.91
2018-07-21T20:06:08.206Z,26.91
2018-07-21T20:08:36.297Z,26.91
2018-07-21T20:11:04.367Z,26.91
2018-07-21T20:13:32.412Z,26.88
2018-07-21T20:16:00.458Z,26.85
2018-07-21T20:18:28.507Z,26.81
2018-07-21T20:20:56.574Z,26.74
2018-07-21T20:23:24.623Z,26.70
2018-07-21T20:25:52.648Z,26.66
2018-07-21T20:28:20.736Z,26.58
2018-07-21T20:30:48.869Z,26.52
2018-07-21T20:33:16.904Z,26.44
2018-07-21T20:35:44.950Z,26.37
2018-07-21T20:38:12.989Z,26.31
2018-07-21T20:40:41.035Z,26.21
2018-07-21T20:43:09.063Z,26.10
2018-07-21T20:45:37.115Z,25.99
2018-07-21T20:48:05.205Z,25.88
2018-07-21T20:50:33.252Z,25.79
2018-07-21T20:53:01.307Z,25.71
2018-07-21T20:55:29.349Z,25.59
2018-07-21T20:58:01.352Z,25.50
2018-07-21T21:00:30.223Z,25.40
2018-07-21T21:02:58.284Z,25.30
2018-07-21T21:05:26.367Z,25.21
2018-07-21T21:07:54.439Z,25.10
2018-07-21T21:10:22.485Z,24.97
2018-07-21T21:12:50.559Z,24.88
2018-07-21T21:15:19.458Z,24.77
2018-07-21T21:17:47.488Z,24.66
2018-07-21T21:20:15.576Z,24.57
2018-07-21T21:22:43.631Z,24.48
2018-07-21T21:25:11.695Z,24.43
2018-07-21T21:27:39.760Z,24.34
2018-07-21T21:30:07.800Z,24.28
2018-07-21T21:32:36.071Z,24.23
2018-07-21T21:35:04.227Z,24.18
2018-07-21T21:37:32.284Z,24.13
2018-07-21T21:40:00.390Z,24.07
2018-07-21T21:42:28.460Z,23.99
2018-07-21T21:44:56.495Z,23.95
2018-07-21T21:47:24.529Z,23.90
2018-07-21T21:49:52.603Z,23.87
2018-07-21T21:52:20.644Z,23.82
2018-07-21T21:54:48.708Z,23.79
2018-07-21T21:57:16.751Z,23.77
2018-07-21T21:59:44.811Z,23.74
2018-07-21T22:02:12.956Z,23.73
2018-07-21T22:04:41.019Z,23.70
2018-07-21T22:07:09.080Z,23.69
2018-07-21T22:09:37.145Z,23.67
2018-07-21T22:12:05.228Z,23.64
2018-07-21T22:14:33.296Z,23.64
2018-07-21T22:17:01.356Z,23.64
2018-07-21T22:19:29.400Z,23.64
2018-07-21T22:21:57.500Z,23.63
2018-07-21T22:24:25.571Z,23.63
2018-07-21T22:26:53.704Z,23.62
2018-07-21T22:29:21.976Z,23.63
2018-07-21T22:31:50.015Z,23.62
2018-07-21T22:34:18.095Z,23.61
2018-07-21T22:36:46.188Z,23.59
2018-07-21T22:39:14.226Z,23.57
2018-07-21T22:41:42.521Z,23.56
2018-07-21T22:44:10.570Z,23.55
2018-07-21T22:46:38.625Z,23.54
2018-07-21T22:49:06.725Z,23.54
2018-07-21T22:51:34.776Z,23.53
2018-07-21T22:54:02.836Z,23.52
2018-07-21T22:56:30.888Z,23.51
2018-07-21T22:58:58.919Z,23.47
2018-07-21T23:01:26.988Z,23.46
2018-07-21T23:03:55.024Z,23.43
2018-07-21T23:06:23.082Z,23.40
2018-07-21T23:08:51.133Z,23.38
2018-07-21T23:11:19.199Z,23.34
2018-07-21T23:13:47.315Z,23.33
2018-07-21T23:16:15.376Z,23.33
2018-07-21T23:18:43.460Z,23.31
2018-07-21T23:21:11.543Z,23.28
2018-07-21T23:23:39.588Z,23.26
2018-07-21T23:26:07.655Z,23.22
2018-07-21T23:28:35.756Z,23.20
2018-07-21T23:31:03.863Z,23.18
2018-07-21T23:33:31.904Z,23.15
2018-07-21T23:35:59.995Z,23.15
2018-07-21T23:38:28.043Z,23.11
2018-07-21T23:40:56.110Z,23.10
2018-07-21T23:43:24.148Z,23.08
2018-07-21T23:45:52.192Z,23.06
2018-07-21T23:48:20.254Z,23.03
2018-07-21T23:50:48.296Z,23.01
2018-07-21T23:53:16.335Z,22.98
2018-07-21T23:55:44.380Z,22.95
2018-07-21T23:58:12.455Z,22.94
